Westrac — WTH4325 — position and weather

sailwx.info

Track history (hours):
 
Tides and Currents Weather Stations Pressure Air Temp Water Temp Dewpoint Dewpoint Depression Visibility Wind Speed Wind Dir Waves Ship Positions

Westrac

Owner: WESTERN TOWBOAT CO, SEATTLE, WA. More information available from US FCC via Universal Licensing System and Coast Guard Vessel Documentation Center.

Last reported at 2016-May-28 23:33 UTC. Time now 2016-May-30 08:46 UTC.
Position N 47°34' W 122°21'.

Length 23 m; draft 5 m.

Type: Tug. MMSI: 366993010.

Date/timePositionNaut miles runAvg speedWind from/ knotsBaromVisibWave heightAir tempDewpointWater temp
2016-May-28 23:33N 47°34' W 122°21'1 1.4
2016-May-28 22:33N 47°33' W 122°20'4 3.7
2016-May-28 21:33N 47°36' W 122°23'1 0.6
2016-May-28 20:33N 47°37' W 122°23'4 3.7
2016-May-28 19:33N 47°39' W 122°27'4 3.9
2016-May-28 18:33N 47°37' W 122°22'1 0.1
2016-May-27 23:33N 47°35' W 122°22'2 2.0
2016-May-27 22:33N 47°34' W 122°21'1 0.5
2016-May-27 21:33N 47°34' W 122°21'0 0.0
2016-May-27 20:33N 47°34' W 122°21'0 0.0
2016-May-27 19:33N 47°34' W 122°21'0 0.0
2016-May-27 18:33N 47°34' W 122°21'1 1.0
2016-May-27 17:33N 47°33' W 122°20'1 1.0
2016-May-27 16:33N 47°34' W 122°21'1 1.3
2016-May-27 15:34N 47°35' W 122°21'0 0.1
2016-May-27 14:33N 47°35' W 122°21'0 0.1
2016-May-27 13:33N 47°35' W 122°21'1 1.2
2016-May-27 12:33N 47°34' W 122°21'0 0.0
2016-May-27 11:33N 47°34' W 122°21'0 0.0
2016-May-27 10:33N 47°34' W 122°21'0 0.0
2016-May-27 09:33N 47°34' W 122°21'0 0.0
2016-May-27 08:33N 47°34' W 122°21'0 0.0
2016-May-27 07:33N 47°34' W 122°21'0 0.0
2016-May-27 06:33N 47°34' W 122°21'0 0.0
2016-May-27 05:33N 47°34' W 122°21'0 0.0
2016-May-27 04:33N 47°34' W 122°21'1 0.5
2016-May-27 03:33N 47°34' W 122°21'2 2.0
2016-May-27 02:33N 47°36' W 122°21'0 0.3
2016-May-27 01:33N 47°35' W 122°21'0 0.0
2016-May-27 00:33N 47°35' W 122°21'4 4.3
2016-May-26 23:33N 47°38' W 122°26'8 8.1
2016-May-26 22:33N 47°46' W 122°25'8 7.5
2016-May-26 21:33N 47°54' W 122°28'1 1.4
2016-May-26 20:33N 47°52' W 122°27'8 7.7
2016-May-26 19:33N 47°45' W 122°25'7 7.3
2016-May-26 18:33N 47°38' W 122°24'4 4.2
2016-May-26 17:33N 47°34' W 122°21'0 0.0
2016-May-26 16:33N 47°34' W 122°21'1 0.8
2016-May-26 15:33N 47°35' W 122°22'1 0.7
2016-May-26 14:33N 47°35' W 122°21'1 0.1
2016-May-25 22:12N 47°34' W 122°21'0 0.0
2016-May-25 21:33N 47°34' W 122°21'0 0.0
2016-May-25 20:33N 47°34' W 122°21'2 1.6
2016-May-25 19:33N 47°33' W 122°20'4 3.7
2016-May-25 18:33N 47°36' W 122°21'2 2.2
2016-May-25 17:33N 47°34' W 122°21'0 0.0
2016-May-25 16:34N 47°34' W 122°21'0 0.0
2016-May-25 15:33N 47°34' W 122°21'0 0.2
2016-May-25 14:33N 47°34' W 122°21'0 0.0
2016-May-25 00:23N 47°34' W 122°21'2 2.0
2016-May-24 23:33N 47°36' W 122°22'1 0.6
2016-May-24 22:33N 47°35' W 122°22'3 2.7
2016-May-24 21:33N 47°33' W 122°20'3 2.6
2016-May-24 20:33N 47°35' W 122°22'2 1.8
2016-May-24 19:33N 47°34' W 122°21'2 1.6
2016-May-24 18:33N 47°35' W 122°21'1 0.6
2016-May-24 17:33N 47°35' W 122°22'0 0.0
2016-May-24 16:33N 47°35' W 122°22'0 0.0
2016-May-24 15:33N 47°35' W 122°22'0 0.0
2016-May-24 14:34N 47°35' W 122°22'1 0.1
2016-May-23 21:11N 47°34' W 122°21'0 0.0
2016-May-23 20:33N 47°34' W 122°21'0 0.0
2016-May-23 19:33N 47°34' W 122°21'0 0.0
2016-May-23 18:33N 47°34' W 122°21'0 0.0
2016-May-23 17:32N 47°34' W 122°21'0 0.1
2016-May-23 16:34N 47°34' W 122°21'1 1.3
2016-May-23 15:33N 47°35' W 122°21'0 0.5
2016-May-23 14:34N 47°36' W 122°21'0 0.5
2016-May-23 13:33N 47°35' W 122°21'1 1.2
2016-May-23 12:34N 47°34' W 122°21'0 0.0
2016-May-23 11:33N 47°34' W 122°21'0 0.0
2016-May-23 10:34N 47°34' W 122°21'0 0.0
2016-May-23 09:33N 47°34' W 122°21'0 0.0
2016-May-23 08:33N 47°34' W 122°21'0 0.0
2016-May-23 07:33N 47°34' W 122°21'0 0.0
2016-May-23 06:34N 47°34' W 122°21'0 0.0
2016-May-23 05:33N 47°34' W 122°21'4 4.0
2016-May-23 04:33N 47°38' W 122°23'1 0.8
2016-May-23 03:34N 47°37' W 122°23'4 4.0
2016-May-23 02:33N 47°34' W 122°21'2 2.3
2016-May-23 01:34N 47°36' W 122°21'2 1.8
2016-May-23 00:33N 47°34' W 122°21'0 0.4
2016-May-22 23:33N 47°34' W 122°21'1 1.4
2016-May-22 22:34N 47°36' W 122°22'2 1.7
2016-May-22 21:34N 47°34' W 122°21'2 1.7
2016-May-22 20:33N 47°35' W 122°22'1 0.1
2016-May-22 13:34N 47°35' W 122°22'0 0.2
2016-May-22 12:33N 47°35' W 122°21'1 0.1
2016-May-21 23:33N 47°34' W 122°21'1 0.7
2016-May-21 22:33N 47°33' W 122°21'3 2.5
2016-May-21 21:33N 47°36' W 122°22'0 0.2
2016-May-21 20:33N 47°35' W 122°22'2 1.8
2016-May-21 19:33N 47°34' W 122°21'2 1.8
2016-May-21 18:33N 47°35' W 122°22'0 0.1
2016-May-21 17:33N 47°35' W 122°22'2 2.5
2016-May-21 16:33N 47°33' W 122°21'2 2.0
2016-May-21 15:33N 47°35' W 122°22'1 1.0
2016-May-21 14:33N 47°34' W 122°21'0 0.1
2016-May-21 13:33N 47°34' W 122°21'1 0.7
2016-May-21 12:33N 47°35' W 122°22'1 0.1
2016-May-21 03:27N 47°34' W 122°21'1 1.5
2016-May-21 02:33N 47°33' W 122°20'0 0.0
2016-May-21 01:34N 47°33' W 122°20'3 2.8
2016-May-21 00:34N 47°35' W 122°22'2 2.2
2016-May-20 23:33N 47°33' W 122°21'2 2.0
2016-May-20 22:34N 47°35' W 122°21'1 1.2
2016-May-20 21:34N 47°34' W 122°21'0 0.0
2016-May-20 20:34N 47°34' W 122°21'1 0.8
2016-May-20 19:34N 47°33' W 122°21'1 0.9
2016-May-20 18:34N 47°34' W 122°21'0 0.0
2016-May-20 17:34N 47°34' W 122°21'1 1.4
2016-May-20 16:33N 47°36' W 122°21'1 1.4
2016-May-20 15:34N 47°34' W 122°21'0 0.0
2016-May-20 14:33N 47°34' W 122°21'0 0.0
2016-May-20 13:34N 47°34' W 122°21'1 1.2
2016-May-20 12:34N 47°35' W 122°21'1 0.7
2016-May-20 11:34N 47°36' W 122°22'2 1.9
2016-May-20 10:34N 47°34' W 122°21'0 0.0
2016-May-20 09:34N 47°34' W 122°21'0 0.0
2016-May-20 08:34N 47°34' W 122°21'0 0.0
2016-May-20 07:34N 47°34' W 122°21'0 0.2
2016-May-20 06:33N 47°34' W 122°21'0 0.2
2016-May-20 05:33N 47°34' W 122°21'0 0.1
2016-May-20 04:34N 47°34' W 122°21'0 0.0
2016-May-20 03:33N 47°34' W 122°21'0 0.0
2016-May-20 02:33N 47°34' W 122°21'0 0.0
2016-May-20 01:33N 47°34' W 122°21'0 0.0
2016-May-20 00:33N 47°34' W 122°21'1 1.2
2016-May-19 23:34N 47°35' W 122°22'1 0.8
2016-May-19 22:33N 47°35' W 122°20'1 1.1
2016-May-19 21:34N 47°35' W 122°22'1 0.9
2016-May-19 20:33N 47°34' W 122°21'2 2.1
2016-May-19 19:34N 47°36' W 122°22'0 0.5
2016-May-19 18:34N 47°35' W 122°22'0 0.1
2016-May-19 17:34N 47°35' W 122°22'0 0.2
2016-May-19 16:34N 47°35' W 122°22'1 0.1
2016-May-19 02:09N 47°34' W 122°21'1 1.7
2016-May-19 01:33N 47°33' W 122°21'0 0.2
2016-May-19 00:33N 47°33' W 122°21'1 0.5
2016-May-18 23:33N 47°34' W 122°21'  
Track history (hours):
 
Tides and Currents Weather Stations Pressure Air Temp Water Temp Dewpoint Dewpoint Depression Visibility Wind Speed Wind Dir Waves Ship Positions

Westrac

Owner: WESTERN TOWBOAT CO, SEATTLE, WA. More information available from US FCC via Universal Licensing System and Coast Guard Vessel Documentation Center.

Last reported at 2016-May-28 23:33 UTC. Time now 2016-May-30 08:46 UTC.
Position N 47°34' W 122°21'.

Length 23 m; draft 5 m.

Type: Tug. MMSI: 366993010.

Date/timePositionNaut miles runAvg speedWind from/ knotsBaromVisibWave heightAir tempDewpointWater temp
2016-May-28 23:33N 47°34' W 122°21'1 1.4
2016-May-28 22:33N 47°33' W 122°20'4 3.7
2016-May-28 21:33N 47°36' W 122°23'1 0.6
2016-May-28 20:33N 47°37' W 122°23'4 3.7
2016-May-28 19:33N 47°39' W 122°27'4 3.9
2016-May-28 18:33N 47°37' W 122°22'1 0.1
2016-May-27 23:33N 47°35' W 122°22'2 2.0
2016-May-27 22:33N 47°34' W 122°21'1 0.5
2016-May-27 21:33N 47°34' W 122°21'0 0.0
2016-May-27 20:33N 47°34' W 122°21'0 0.0
2016-May-27 19:33N 47°34' W 122°21'0 0.0
2016-May-27 18:33N 47°34' W 122°21'1 1.0
2016-May-27 17:33N 47°33' W 122°20'1 1.0
2016-May-27 16:33N 47°34' W 122°21'1 1.3
2016-May-27 15:34N 47°35' W 122°21'0 0.1
2016-May-27 14:33N 47°35' W 122°21'0 0.1
2016-May-27 13:33N 47°35' W 122°21'1 1.2
2016-May-27 12:33N 47°34' W 122°21'0 0.0
2016-May-27 11:33N 47°34' W 122°21'0 0.0
2016-May-27 10:33N 47°34' W 122°21'0 0.0
2016-May-27 09:33N 47°34' W 122°21'0 0.0
2016-May-27 08:33N 47°34' W 122°21'0 0.0
2016-May-27 07:33N 47°34' W 122°21'0 0.0
2016-May-27 06:33N 47°34' W 122°21'0 0.0
2016-May-27 05:33N 47°34' W 122°21'0 0.0
2016-May-27 04:33N 47°34' W 122°21'1 0.5
2016-May-27 03:33N 47°34' W 122°21'2 2.0
2016-May-27 02:33N 47°36' W 122°21'0 0.3
2016-May-27 01:33N 47°35' W 122°21'0 0.0
2016-May-27 00:33N 47°35' W 122°21'4 4.3
2016-May-26 23:33N 47°38' W 122°26'8 8.1
2016-May-26 22:33N 47°46' W 122°25'8 7.5
2016-May-26 21:33N 47°54' W 122°28'1 1.4
2016-May-26 20:33N 47°52' W 122°27'8 7.7
2016-May-26 19:33N 47°45' W 122°25'7 7.3
2016-May-26 18:33N 47°38' W 122°24'4 4.2
2016-May-26 17:33N 47°34' W 122°21'0 0.0
2016-May-26 16:33N 47°34' W 122°21'1 0.8
2016-May-26 15:33N 47°35' W 122°22'1 0.7
2016-May-26 14:33N 47°35' W 122°21'1 0.1
2016-May-25 22:12N 47°34' W 122°21'0 0.0
2016-May-25 21:33N 47°34' W 122°21'0 0.0
2016-May-25 20:33N 47°34' W 122°21'2 1.6
2016-May-25 19:33N 47°33' W 122°20'4 3.7
2016-May-25 18:33N 47°36' W 122°21'2 2.2
2016-May-25 17:33N 47°34' W 122°21'0 0.0
2016-May-25 16:34N 47°34' W 122°21'0 0.0
2016-May-25 15:33N 47°34' W 122°21'0 0.2
2016-May-25 14:33N 47°34' W 122°21'0 0.0
2016-May-25 00:23N 47°34' W 122°21'2 2.0
2016-May-24 23:33N 47°36' W 122°22'1 0.6
2016-May-24 22:33N 47°35' W 122°22'3 2.7
2016-May-24 21:33N 47°33' W 122°20'3 2.6
2016-May-24 20:33N 47°35' W 122°22'2 1.8
2016-May-24 19:33N 47°34' W 122°21'2 1.6
2016-May-24 18:33N 47°35' W 122°21'1 0.6
2016-May-24 17:33N 47°35' W 122°22'0 0.0
2016-May-24 16:33N 47°35' W 122°22'0 0.0
2016-May-24 15:33N 47°35' W 122°22'0 0.0
2016-May-24 14:34N 47°35' W 122°22'1 0.1
2016-May-23 21:11N 47°34' W 122°21'0 0.0
2016-May-23 20:33N 47°34' W 122°21'0 0.0
2016-May-23 19:33N 47°34' W 122°21'0 0.0
2016-May-23 18:33N 47°34' W 122°21'0 0.0
2016-May-23 17:32N 47°34' W 122°21'0 0.1
2016-May-23 16:34N 47°34' W 122°21'1 1.3
2016-May-23 15:33N 47°35' W 122°21'0 0.5
2016-May-23 14:34N 47°36' W 122°21'0 0.5
2016-May-23 13:33N 47°35' W 122°21'1 1.2
2016-May-23 12:34N 47°34' W 122°21'0 0.0
2016-May-23 11:33N 47°34' W 122°21'0 0.0
2016-May-23 10:34N 47°34' W 122°21'0 0.0
2016-May-23 09:33N 47°34' W 122°21'0 0.0
2016-May-23 08:33N 47°34' W 122°21'0 0.0
2016-May-23 07:33N 47°34' W 122°21'0 0.0
2016-May-23 06:34N 47°34' W 122°21'0 0.0
2016-May-23 05:33N 47°34' W 122°21'4 4.0
2016-May-23 04:33N 47°38' W 122°23'1 0.8
2016-May-23 03:34N 47°37' W 122°23'4 4.0
2016-May-23 02:33N 47°34' W 122°21'2 2.3
2016-May-23 01:34N 47°36' W 122°21'2 1.8
2016-May-23 00:33N 47°34' W 122°21'0 0.4
2016-May-22 23:33N 47°34' W 122°21'1 1.4
2016-May-22 22:34N 47°36' W 122°22'2 1.7
2016-May-22 21:34N 47°34' W 122°21'2 1.7
2016-May-22 20:33N 47°35' W 122°22'1 0.1
2016-May-22 13:34N 47°35' W 122°22'0 0.2
2016-May-22 12:33N 47°35' W 122°21'1 0.1
2016-May-21 23:33N 47°34' W 122°21'1 0.7
2016-May-21 22:33N 47°33' W 122°21'3 2.5
2016-May-21 21:33N 47°36' W 122°22'0 0.2
2016-May-21 20:33N 47°35' W 122°22'2 1.8
2016-May-21 19:33N 47°34' W 122°21'2 1.8
2016-May-21 18:33N 47°35' W 122°22'0 0.1
2016-May-21 17:33N 47°35' W 122°22'2 2.5
2016-May-21 16:33N 47°33' W 122°21'2 2.0
2016-May-21 15:33N 47°35' W 122°22'1 1.0
2016-May-21 14:33N 47°34' W 122°21'0 0.1
2016-May-21 13:33N 47°34' W 122°21'1 0.7
2016-May-21 12:33N 47°35' W 122°22'1 0.1
2016-May-21 03:27N 47°34' W 122°21'1 1.5
2016-May-21 02:33N 47°33' W 122°20'0 0.0
2016-May-21 01:34N 47°33' W 122°20'3 2.8
2016-May-21 00:34N 47°35' W 122°22'2 2.2
2016-May-20 23:33N 47°33' W 122°21'2 2.0
2016-May-20 22:34N 47°35' W 122°21'1 1.2
2016-May-20 21:34N 47°34' W 122°21'0 0.0
2016-May-20 20:34N 47°34' W 122°21'1 0.8
2016-May-20 19:34N 47°33' W 122°21'1 0.9
2016-May-20 18:34N 47°34' W 122°21'0 0.0
2016-May-20 17:34N 47°34' W 122°21'1 1.4
2016-May-20 16:33N 47°36' W 122°21'1 1.4
2016-May-20 15:34N 47°34' W 122°21'0 0.0
2016-May-20 14:33N 47°34' W 122°21'0 0.0
2016-May-20 13:34N 47°34' W 122°21'1 1.2
2016-May-20 12:34N 47°35' W 122°21'1 0.7
2016-May-20 11:34N 47°36' W 122°22'2 1.9
2016-May-20 10:34N 47°34' W 122°21'0 0.0
2016-May-20 09:34N 47°34' W 122°21'0 0.0
2016-May-20 08:34N 47°34' W 122°21'0 0.0
2016-May-20 07:34N 47°34' W 122°21'0 0.2
2016-May-20 06:33N 47°34' W 122°21'0 0.2
2016-May-20 05:33N 47°34' W 122°21'0 0.1
2016-May-20 04:34N 47°34' W 122°21'0 0.0
2016-May-20 03:33N 47°34' W 122°21'0 0.0
2016-May-20 02:33N 47°34' W 122°21'0 0.0
2016-May-20 01:33N 47°34' W 122°21'0 0.0
2016-May-20 00:33N 47°34' W 122°21'1 1.2
2016-May-19 23:34N 47°35' W 122°22'1 0.8
2016-May-19 22:33N 47°35' W 122°20'1 1.1
2016-May-19 21:34N 47°35' W 122°22'1 0.9
2016-May-19 20:33N 47°34' W 122°21'2 2.1
2016-May-19 19:34N 47°36' W 122°22'0 0.5
2016-May-19 18:34N 47°35' W 122°22'0 0.1
2016-May-19 17:34N 47°35' W 122°22'0 0.2
2016-May-19 16:34N 47°35' W 122°22'1 0.1
2016-May-19 02:09N 47°34' W 122°21'1 1.7
2016-May-19 01:33N 47°33' W 122°21'0 0.2
2016-May-19 00:33N 47°33' W 122°21'1 0.5
2016-May-18 23:33N 47°34' W 122°21'  

Dump ship's entire track history